| time (UTC) | temp C | wind direction | speed KPH | gust KPH | rain 1hr cm | rain 24hr cm | rain mn cm | humidity % | barometer mb |
| 20260508114517 | 0 | 159 | 0.0 | 0.0 | 0.00 | 0.28 | 0.05 | 97 | 1021.9 |
| 20260508113030 | 0 | 159 | 0.0 | 0.0 | 0.03 | 0.28 | 0.05 | 96 | 1022.0 |
| 20260508111505 | 0 | 159 | 0.0 | 0.0 | 0.03 | 0.28 | 0.05 | 96 | 1022.0 |
| 20260508110010 | 0 | 159 | 0.0 | 1.6 | 0.03 | 0.28 | 0.05 | 96 | 1021.8 |
| 20260508104514 | 0 | 206 | 3.2 | 6.4 | 0.03 | 0.28 | 0.05 | 96 | 1021.6 |
| 20260508103022 | 0 | 323 | 0.0 | 0.0 | 0.00 | 0.25 | 0.03 | 96 | 1021.8 |
| 20260508101529 | 0 | 39 | 1.6 | 19.3 | 0.00 | 0.25 | 0.03 | 96 | 1022.3 |
| 20260508100005 | 0 | 345 | 0.0 | 4.8 | 0.00 | 0.25 | 0.03 | 97 | 1022.2 |
| 20260508093017 | 0 | 358 | 0.0 | 0.0 | 0.00 | 0.25 | 0.03 | 96 | 1020.8 |
| 20260508091533 | 0 | 335 | 0.0 | 0.0 | 0.00 | 0.25 | 0.03 | 95 | 1020.7 |
| 20260508090037 | 0 | 302 | 0.0 | 4.8 | 0.00 | 0.25 | 0.03 | 94 | 1020.8 |
| 20260508084505 | 1 | 316 | 1.6 | 8.0 | 0.00 | 0.25 | 0.03 | 97 | 1020.8 |
| 20260508083009 | 0 | 350 | 1.6 | 3.2 | 0.00 | 0.25 | 0.03 | 95 | 1020.8 |
| 20260508081518 | 0 | 112 | 0.0 | 0.0 | 0.00 | 0.25 | 0.03 | 95 | 1021.0 |
| 20260508080031 | 0 | 124 | 0.0 | 1.6 | 0.00 | 0.25 | 0.03 | 92 | 1020.9 |
| 20260508074529 | 2 | 178 | 0.0 | 4.8 | 0.00 | 0.25 | 0.03 | 90 | 1020.8 |
| 20260508073010 | 2 | 251 | 1.6 | 6.4 | 0.00 | 0.25 | 0.03 | 89 | 1020.6 |
| 20260508071523 | 2 | 238 | 8.0 | 12.9 | 0.00 | 0.25 | 0.03 | 89 | 1020.5 |
| 20260508070019 | 2 | 242 | 0.0 | 8.0 | 0.03 | 0.25 | 0.03 | 90 | 1020.5 |
| 20260508064504 | 2 | 233 | 3.2 | 9.7 | 0.08 | 0.25 | 0.03 | 90 | 1020.5 |
| 20260508063006 | 2 | 221 | 1.6 | 3.2 | 0.13 | 0.25 | 0.03 | 90 | 1020.8 |
| 20260508061512 | 2 | 319 | 0.0 | 20.9 | 0.15 | 0.25 | 0.03 | 90 | 1020.8 |
| 20260508060018 | 2 | 248 | 0.0 | 8.0 | 0.13 | 0.23 | 0.00 | 92 | 1021.6 |
| 20260508054502 | 2 | 297 | 4.8 | 16.1 | 0.10 | 0.18 | 0.18 | 90 | 1021.7 |
| 20260508053002 | 3 | 259 | 0.0 | 3.2 | 0.05 | 0.13 | 0.13 | 90 | 1021.5 |
| 20260508051508 | 3 | 300 | 0.0 | 9.7 | 0.03 | 0.10 | 0.10 | 89 | 1021.3 |
| 20260508050012 | 3 | 337 | 0.0 | 3.2 | 0.03 | 0.10 | 0.10 | 89 | 1021.6 |
| 20260508044520 | 3 | 207 | 4.8 | 6.4 | 0.00 | 0.08 | 0.08 | 86 | 1021.4 |
| 20260508043004 | 3 | 241 | 1.6 | 9.7 | 0.00 | 0.08 | 0.08 | 88 | 1021.3 |
| 20260508041506 | 2 | 236 | 3.2 | 4.8 | 0.00 | 0.08 | 0.08 | 93 | 1021.3 |
| 20260508040011 | 2 | 224 | 0.0 | 1.6 | 0.00 | 0.08 | 0.08 | 94 | 1021.1 |
| 20260508034514 | 2 | 144 | 0.0 | 6.4 | 0.00 | 0.08 | 0.08 | 93 | 1020.9 |
| 20260508033018 | 2 | 340 | 0.0 | 3.2 | 0.00 | 0.08 | 0.08 | 93 | 1021.0 |
| 20260508031504 | 2 | 354 | 0.0 | 1.6 | 0.00 | 0.08 | 0.08 | 92 | 1020.8 |
| 20260508030008 | 3 | 313 | 0.0 | 1.6 | 0.00 | 0.08 | 0.08 | 91 | 1020.6 |
| 20260508024512 | 3 | 245 | 3.2 | 6.4 | 0.00 | 0.08 | 0.08 | 88 | 1020.2 |
| 20260508023018 | 3 | 245 | 3.2 | 11.3 | 0.00 | 0.08 | 0.08 | 88 | 1020.2 |
| 20260508021529 | 3 | 171 | 1.6 | 4.8 | 0.00 | 0.08 | 0.08 | 88 | 1020.0 |
| 20260508020005 | 3 | 46 | 0.0 | 1.6 | 0.00 | 0.08 | 0.08 | 88 | 1020.0 |
| 20260508014508 | 3 | 262 | 0.0 | 11.3 | 0.00 | 0.08 | 0.08 | 86 | 1020.2 |
| 20260508013022 | 4 | 268 | 6.4 | 25.7 | 0.03 | 0.08 | 0.08 | 85 | 1019.4 |
| 20260508011519 | 4 | 217 | 12.9 | 24.1 | 0.03 | 0.08 | 0.08 | 85 | 1019.4 |
| 20260508010022 | 4 | 240 | 11.3 | 27.4 | 0.03 | 0.08 | 0.08 | 87 | 1019.8 |
| 20260508004535 | 4 | 249 | 9.7 | 25.7 | 0.05 | 0.08 | 0.08 | 88 | 1019.8 |
| 20260508003012 | 4 | 240 | 6.4 | 17.7 | 0.03 | 0.05 | 0.05 | 86 | 1019.5 |
| 20260508001517 | 5 | 242 | 12.9 | 20.9 | 0.03 | 0.05 | 0.05 | 86 | 1019.2 |
| 20260508000021 | 3 | 229 | 12.9 | 48.3 | 0.03 | 0.05 | 0.05 | 85 | 1019.5 |
| 20260507234524 | 7 | 264 | 9.7 | 22.5 | 0.00 | 0.03 | 0.03 | 72 | 1019.4 |
| 20260507233003 | 8 | 234 | 11.3 | 22.5 | 0.00 | 0.03 | 0.03 | 71 | 1019.0 |
| 20260507231502 | 7 | 234 | 11.3 | 32.2 | 0.00 | 0.05 | 0.03 | 73 | 1019.1 |
| 20260507230002 | 6 | 264 | 9.7 | 25.7 | 0.00 | 0.05 | 0.03 | 77 | 1019.3 |
| 20260507224502 | 6 | 219 | 17.7 | 29.0 | 0.00 | 0.08 | 0.03 | 76 | 1019.6 |
| 20260507223002 | 6 | 257 | 9.7 | 20.9 | 0.00 | 0.08 | 0.03 | 75 | 1019.5 |
| 20260507221502 | 5 | 266 | 14.5 | 41.8 | 0.00 | 0.08 | 0.03 | 80 | 1019.7 |
| 20260507220002 | 5 | 293 | 11.3 | 35.4 | 0.03 | 0.10 | 0.03 | 81 | 1020.2 |
| 20260507214503 | 6 | 272 | 16.1 | 54.7 | 0.03 | 0.13 | 0.03 | 71 | 1019.9 |
| 20260507213002 | 7 | 241 | 32.2 | 46.7 | 0.03 | 0.15 | 0.03 | 68 | 1019.9 |
| 20260507211500 | 6 | 255 | 8.0 | 27.4 | 0.03 | 0.18 | 0.03 | 71 | 1019.8 |
| 20260507210007 | 4 | 323 | 8.0 | 24.1 | 0.00 | 0.18 | 0.00 | 79 | 1020.3 |
| 20260507204504 | 6 | 297 | 25.7 | 43.5 | 0.00 | 0.23 | 0.00 | 69 | 1020.4 |
| 20260507203002 | 8 | 271 | 22.5 | 35.4 | 0.00 | 0.28 | 0.00 | 55 | 1019.8 |
| 20260507201508 | 8 | 297 | 8.0 | 33.8 | 0.00 | 0.33 | 0.00 | 56 | 1019.7 |
| 20260507200003 | 8 | 287 | 16.1 | 32.2 | 0.00 | 0.36 | 0.00 | 52 | 1019.9 |
| 20260507194503 | 8 | 256 | 24.1 | 38.6 | 0.00 | 0.41 | 0.00 | 49 | 1020.0 |
| 20260507193004 | 8 | 258 | 24.1 | 37.0 | 0.00 | 0.43 | 0.00 | 50 | 1020.1 |
| 20260507191503 | 8 | 299 | 11.3 | 33.8 | 0.00 | 0.46 | 0.00 | 52 | 1020.2 |
| 20260507190004 | 8 | 253 | 17.7 | 33.8 | 0.00 | 0.48 | 0.00 | 52 | 1020.5 |
| 20260507184509 | 7 | 256 | 11.3 | 32.2 | 0.00 | 0.48 | 0.00 | 54 | 1020.7 |
| 20260507183003 | 7 | 180 | 8.0 | 29.0 | 0.00 | 0.51 | 0.00 | 57 | 1020.8 |
| 20260507181503 | 6 | 272 | 16.1 | 27.4 | 0.00 | 0.51 | 0.00 | 57 | 1020.9 |
| 20260507180005 | 6 | 260 | 9.7 | 30.6 | 0.00 | 0.53 | 0.00 | 57 | 1020.9 |
| 20260507174503 | 6 | 295 | 14.5 | 29.0 | 0.00 | 0.56 | 0.00 | 58 | 1020.8 |
| 20260507173002 | 6 | 280 | 6.4 | 24.1 | 0.00 | 0.56 | 0.00 | 58 | 1021.1 |
| 20260507171506 | 6 | 232 | 4.8 | 32.2 | 0.00 | 0.58 | 0.00 | 58 | 1021.0 |
| 20260507170002 | 6 | 278 | 19.3 | 33.8 | 0.00 | 0.58 | 0.00 | 58 | 1021.0 |
| 20260507164503 | 5 | 243 | 19.3 | 40.2 | 0.00 | 0.61 | 0.00 | 58 | 1020.4 |
| 20260507163006 | 5 | 323 | 16.1 | 54.7 | 0.00 | 0.61 | 0.00 | 60 | 1020.6 |
| 20260507161504 | 5 | 274 | 11.3 | 59.5 | 0.00 | 0.61 | 0.00 | 62 | 1020.8 |
| 20260507160005 | 4 | 268 | 22.5 | 41.8 | 0.00 | 0.61 | 0.00 | 61 | 1021.1 |
| 20260507154506 | 3 | 278 | 17.7 | 35.4 | 0.00 | 0.61 | 0.00 | 63 | 1021.4 |
| 20260507153006 | 3 | 243 | 14.5 | 35.4 | 0.00 | 0.61 | 0.00 | 65 | 1021.5 |
| 20260507151505 | 2 | 224 | 12.9 | 22.5 | 0.00 | 0.61 | 0.00 | 66 | 1021.9 |
| 20260507150007 | 1 | 236 | 16.1 | 27.4 | 0.00 | 0.61 | 0.00 | 66 | 1021.9 |
| 20260507144509 | 1 | 231 | 11.3 | 19.3 | 0.00 | 0.61 | 0.00 | 68 | 1022.0 |
| 20260507143009 | 0 | 212 | 9.7 | 20.9 | 0.00 | 0.61 | 0.00 | 69 | 1022.0 |
| 20260507141502 | 0 | 223 | 11.3 | 20.9 | 0.00 | 0.61 | 0.00 | 70 | 1021.7 |
| 20260507140008 | 0 | 245 | 8.0 | 16.1 | 0.00 | 0.61 | 0.00 | 71 | 1022.0 |
| 20260507134503 | 0 | 223 | 9.7 | 16.1 | 0.00 | 0.61 | 0.00 | 72 | 1021.8 |
| 20260507133006 | -1 | 222 | 9.7 | 20.9 | 0.00 | 0.61 | 0.00 | 72 | 1021.4 |
| 20260507131515 | -1 | 216 | 11.3 | 19.3 | 0.00 | 0.61 | 0.00 | 72 | 1021.1 |
| 20260507130022 | -1 | 226 | 6.4 | 14.5 | 0.00 | 0.61 | 0.00 | 73 | 1021.1 |
| 20260507124503 | -1 | 237 | 6.4 | 20.9 | 0.00 | 0.61 | 0.00 | 73 | 1021.2 |
| 20260507123004 | -2 | 223 | 9.7 | 19.3 | 0.00 | 0.61 | 0.00 | 73 | 1021.4 |
| 20260507121506 | -2 | 256 | 12.9 | 17.7 | 0.00 | 0.61 | 0.00 | 73 | 1021.5 |
| 20260507120013 | -2 | 269 | 8.0 | 17.7 | 0.00 | 0.61 | 0.00 | 74 | 1021.7 |